sensor_id;sensor_type;location;lat;lon;timestamp;temperature;humidity
80577;DHT22;69937;52.420;10.538;2023-11-19T00:03:44;5.00;82.70
80577;DHT22;69937;52.420;10.538;2023-11-19T00:08:45;5.10;82.80
80577;DHT22;69937;52.420;10.538;2023-11-19T00:13:45;5.10;82.90
80577;DHT22;69937;52.420;10.538;2023-11-19T00:18:46;5.10;83.00
80577;DHT22;69937;52.420;10.538;2023-11-19T00:23:46;5.10;83.00
80577;DHT22;69937;52.420;10.538;2023-11-19T00:28:47;5.10;83.00
80577;DHT22;69937;52.420;10.538;2023-11-19T00:33:48;5.10;82.90
80577;DHT22;69937;52.420;10.538;2023-11-19T00:38:48;5.20;82.80
80577;DHT22;69937;52.420;10.538;2023-11-19T00:43:49;5.30;82.50
80577;DHT22;69937;52.420;10.538;2023-11-19T00:48:49;5.30;82.20
80577;DHT22;69937;52.420;10.538;2023-11-19T00:53:50;5.30;82.00
80577;DHT22;69937;52.420;10.538;2023-11-19T00:58:50;5.30;82.00
80577;DHT22;69937;52.420;10.538;2023-11-19T01:03:51;5.30;81.90
80577;DHT22;69937;52.420;10.538;2023-11-19T01:08:51;5.40;82.00
80577;DHT22;69937;52.420;10.538;2023-11-19T01:13:53;5.40;81.90
80577;DHT22;69937;52.420;10.538;2023-11-19T01:18:54;5.50;81.70
80577;DHT22;69937;52.420;10.538;2023-11-19T01:23:54;5.50;81.50
80577;DHT22;69937;52.420;10.538;2023-11-19T01:28:55;5.50;81.40
80577;DHT22;69937;52.420;10.538;2023-11-19T01:33:55;5.50;81.20
80577;DHT22;69937;52.420;10.538;2023-11-19T01:38:56;5.60;80.90
80577;DHT22;69937;52.420;10.538;2023-11-19T01:43:56;5.60;80.90
80577;DHT22;69937;52.420;10.538;2023-11-19T01:48:57;5.60;81.00
80577;DHT22;69937;52.420;10.538;2023-11-19T01:53:58;5.70;81.00
80577;DHT22;69937;52.420;10.538;2023-11-19T01:58:59;5.70;81.10
80577;DHT22;69937;52.420;10.538;2023-11-19T02:04:01;5.70;81.30
80577;DHT22;69937;52.420;10.538;2023-11-19T02:09:02;5.80;81.50
80577;DHT22;69937;52.420;10.538;2023-11-19T02:14:07;5.80;81.70
80577;DHT22;69937;52.420;10.538;2023-11-19T02:19:08;5.90;81.80
80577;DHT22;69937;52.420;10.538;2023-11-19T02:24:12;5.90;82.00
80577;DHT22;69937;52.420;10.538;2023-11-19T02:29:14;5.90;82.20
80577;DHT22;69937;52.420;10.538;2023-11-19T02:34:14;5.90;82.60
80577;DHT22;69937;52.420;10.538;2023-11-19T02:39:16;6.10;83.40
80577;DHT22;69937;52.420;10.538;2023-11-19T02:44:21;6.30;83.90
80577;DHT22;69937;52.420;10.538;2023-11-19T02:49:22;6.50;83.70
80577;DHT22;69937;52.420;10.538;2023-11-19T02:54:22;6.80;83.20
80577;DHT22;69937;52.420;10.538;2023-11-19T02:59:27;6.90;83.00
80577;DHT22;69937;52.420;10.538;2023-11-19T03:04:28;7.00;82.70
80577;DHT22;69937;52.420;10.538;2023-11-19T03:09:28;7.00;82.80
80577;DHT22;69937;52.420;10.538;2023-11-19T03:14:29;7.00;83.20
80577;DHT22;69937;52.420;10.538;2023-11-19T03:19:32;7.00;83.60
80577;DHT22;69937;52.420;10.538;2023-11-19T03:24:33;7.00;83.90
80577;DHT22;69937;52.420;10.538;2023-11-19T03:29:33;7.00;84.00
80577;DHT22;69937;52.420;10.538;2023-11-19T03:34:34;7.00;84.10
80577;DHT22;69937;52.420;10.538;2023-11-19T03:39:35;7.20;83.90
80577;DHT22;69937;52.420;10.538;2023-11-19T03:44:35;7.20;84.00
80577;DHT22;69937;52.420;10.538;2023-11-19T03:49:36;7.20;84.10
80577;DHT22;69937;52.420;10.538;2023-11-19T03:54:36;7.30;84.10
80577;DHT22;69937;52.420;10.538;2023-11-19T03:59:37;7.40;83.80
80577;DHT22;69937;52.420;10.538;2023-11-19T04:04:38;7.50;83.70
80577;DHT22;69937;52.420;10.538;2023-11-19T04:09:39;7.50;83.80
80577;DHT22;69937;52.420;10.538;2023-11-19T04:14:40;7.50;83.70
80577;DHT22;69937;52.420;10.538;2023-11-19T04:19:41;7.50;83.60
80577;DHT22;69937;52.420;10.538;2023-11-19T04:24:42;7.60;83.50
80577;DHT22;69937;52.420;10.538;2023-11-19T04:29:46;7.60;83.40
80577;DHT22;69937;52.420;10.538;2023-11-19T04:34:47;7.60;83.50
80577;DHT22;69937;52.420;10.538;2023-11-19T04:39:48;7.60;83.50
80577;DHT22;69937;52.420;10.538;2023-11-19T04:44:48;7.70;83.40
80577;DHT22;69937;52.420;10.538;2023-11-19T04:49:49;7.70;83.60
80577;DHT22;69937;52.420;10.538;2023-11-19T04:54:50;7.80;83.70
80577;DHT22;69937;52.420;10.538;2023-11-19T04:59:51;7.80;84.00
80577;DHT22;69937;52.420;10.538;2023-11-19T05:04:52;7.90;84.00
80577;DHT22;69937;52.420;10.538;2023-11-19T05:09:53;8.00;84.10
80577;DHT22;69937;52.420;10.538;2023-11-19T05:14:54;8.00;84.00
80577;DHT22;69937;52.420;10.538;2023-11-19T05:19:54;8.10;83.90
80577;DHT22;69937;52.420;10.538;2023-11-19T05:24:55;8.20;83.80
80577;DHT22;69937;52.420;10.538;2023-11-19T05:29:56;8.20;83.70
80577;DHT22;69937;52.420;10.538;2023-11-19T05:34:57;8.30;83.60
80577;DHT22;69937;52.420;10.538;2023-11-19T05:39:57;8.40;83.50
80577;DHT22;69937;52.420;10.538;2023-11-19T05:45:00;8.40;83.50
80577;DHT22;69937;52.420;10.538;2023-11-19T05:50:02;8.40;83.50
80577;DHT22;69937;52.420;10.538;2023-11-19T05:55:04;8.50;83.50
80577;DHT22;69937;52.420;10.538;2023-11-19T06:00:10;8.60;83.20
80577;DHT22;69937;52.420;10.538;2023-11-19T06:05:13;8.60;83.20
80577;DHT22;69937;52.420;10.538;2023-11-19T06:10:14;8.60;83.00
80577;DHT22;69937;52.420;10.538;2023-11-19T06:15:17;8.60;83.20
80577;DHT22;69937;52.420;10.538;2023-11-19T06:20:19;8.70;83.10
80577;DHT22;69937;52.420;10.538;2023-11-19T06:25:20;8.80;83.10
80577;DHT22;69937;52.420;10.538;2023-11-19T06:30:21;8.80;83.00
80577;DHT22;69937;52.420;10.538;2023-11-19T06:35:22;8.80;83.10
80577;DHT22;69937;52.420;10.538;2023-11-19T06:40:23;8.90;83.30
80577;DHT22;69937;52.420;10.538;2023-11-19T06:45:23;8.90;83.50
80577;DHT22;69937;52.420;10.538;2023-11-19T06:50:26;8.90;83.70
80577;DHT22;69937;52.420;10.538;2023-11-19T06:55:30;8.90;83.80
80577;DHT22;69937;52.420;10.538;2023-11-19T07:00:31;8.90;84.00
80577;DHT22;69937;52.420;10.538;2023-11-19T07:05:32;8.90;84.20
80577;DHT22;69937;52.420;10.538;2023-11-19T07:10:33;9.00;84.20
80577;DHT22;69937;52.420;10.538;2023-11-19T07:15:34;9.10;84.20
80577;DHT22;69937;52.420;10.538;2023-11-19T07:20:35;9.20;84.20
80577;DHT22;69937;52.420;10.538;2023-11-19T07:25:35;9.20;84.10
80577;DHT22;69937;52.420;10.538;2023-11-19T07:30:38;9.40;84.30
80577;DHT22;69937;52.420;10.538;2023-11-19T07:35:39;9.50;84.20
80577;DHT22;69937;52.420;10.538;2023-11-19T07:40:39;9.70;84.20
80577;DHT22;69937;52.420;10.538;2023-11-19T07:45:40;9.90;83.80
80577;DHT22;69937;52.420;10.538;2023-11-19T07:50:40;10.00;83.70
80577;DHT22;69937;52.420;10.538;2023-11-19T07:55:41;10.20;83.80
80577;DHT22;69937;52.420;10.538;2023-11-19T08:00:41;10.30;83.60
80577;DHT22;69937;52.420;10.538;2023-11-19T08:05:42;10.40;83.40
80577;DHT22;69937;52.420;10.538;2023-11-19T08:10:43;10.50;82.90
80577;DHT22;69937;52.420;10.538;2023-11-19T08:15:44;10.70;82.50
80577;DHT22;69937;52.420;10.538;2023-11-19T08:20:46;10.80;81.80
80577;DHT22;69937;52.420;10.538;2023-11-19T08:25:50;10.90;81.00
80577;DHT22;69937;52.420;10.538;2023-11-19T08:30:50;11.10;80.00
80577;DHT22;69937;52.420;10.538;2023-11-19T08:35:51;11.20;79.00
80577;DHT22;69937;52.420;10.538;2023-11-19T08:40:51;11.40;78.10
80577;DHT22;69937;52.420;10.538;2023-11-19T08:45:52;11.50;77.10
80577;DHT22;69937;52.420;10.538;2023-11-19T08:50:53;11.50;76.80
80577;DHT22;69937;52.420;10.538;2023-11-19T08:55:53;11.50;76.40
80577;DHT22;69937;52.420;10.538;2023-11-19T09:00:54;11.70;75.80
80577;DHT22;69937;52.420;10.538;2023-11-19T09:05:54;11.70;74.80
80577;DHT22;69937;52.420;10.538;2023-11-19T09:10:55;11.70;74.50
80577;DHT22;69937;52.420;10.538;2023-11-19T09:15:55;11.90;73.60
80577;DHT22;69937;52.420;10.538;2023-11-19T09:20:59;12.10;72.20
80577;DHT22;69937;52.420;10.538;2023-11-19T09:26:00;12.30;70.80
80577;DHT22;69937;52.420;10.538;2023-11-19T09:31:01;12.50;70.80
80577;DHT22;69937;52.420;10.538;2023-11-19T09:36:05;12.70;69.60
80577;DHT22;69937;52.420;10.538;2023-11-19T09:41:06;12.70;69.00
80577;DHT22;69937;52.420;10.538;2023-11-19T09:46:16;12.70;68.50
80577;DHT22;69937;52.420;10.538;2023-11-19T09:51:16;12.60;68.90
80577;DHT22;69937;52.420;10.538;2023-11-19T09:56:17;12.50;69.40
80577;DHT22;69937;52.420;10.538;2023-11-19T10:01:18;12.50;69.80
80577;DHT22;69937;52.420;10.538;2023-11-19T10:06:19;12.50;69.60
80577;DHT22;69937;52.420;10.538;2023-11-19T10:11:19;12.70;69.30
80577;DHT22;69937;52.420;10.538;2023-11-19T10:16:20;12.70;68.70
80577;DHT22;69937;52.420;10.538;2023-11-19T10:21:20;12.80;67.90
80577;DHT22;69937;52.420;10.538;2023-11-19T10:26:23;12.90;68.30
80577;DHT22;69937;52.420;10.538;2023-11-19T10:31:23;13.10;67.70
80577;DHT22;69937;52.420;10.538;2023-11-19T10:36:38;13.30;67.70
80577;DHT22;69937;52.420;10.538;2023-11-19T10:41:41;13.40;66.80
80577;DHT22;69937;52.420;10.538;2023-11-19T10:46:42;13.50;66.80
80577;DHT22;69937;52.420;10.538;2023-11-19T10:51:45;13.60;66.50
80577;DHT22;69937;52.420;10.538;2023-11-19T10:56:54;13.50;66.70
80577;DHT22;69937;52.420;10.538;2023-11-19T11:01:57;13.40;66.50
80577;DHT22;69937;52.420;10.538;2023-11-19T11:06:58;13.50;66.90
80577;DHT22;69937;52.420;10.538;2023-11-19T11:12:00;13.60;65.70
80577;DHT22;69937;52.420;10.538;2023-11-19T11:17:02;13.70;64.80
80577;DHT22;69937;52.420;10.538;2023-11-19T11:22:04;13.50;64.50
80577;DHT22;69937;52.420;10.538;2023-11-19T11:32:44;13.10;65.60
80577;DHT22;69937;52.420;10.538;2023-11-19T11:38:04;13.30;65.40
80577;DHT22;69937;52.420;10.538;2023-11-19T11:48:47;13.30;65.50
80577;DHT22;69937;52.420;10.538;2023-11-19T11:53:48;13.10;65.60
80577;DHT22;69937;52.420;10.538;2023-11-19T11:58:49;13.10;65.80
80577;DHT22;69937;52.420;10.538;2023-11-19T12:03:50;13.10;66.70
80577;DHT22;69937;52.420;10.538;2023-11-19T12:08:51;12.90;66.50
80577;DHT22;69937;52.420;10.538;2023-11-19T12:13:56;13.10;66.20
80577;DHT22;69937;52.420;10.538;2023-11-19T12:19:03;13.40;66.10
80577;DHT22;69937;52.420;10.538;2023-11-19T12:24:06;13.50;65.00
80577;DHT22;69937;52.420;10.538;2023-11-19T12:29:08;13.50;65.00
80577;DHT22;69937;52.420;10.538;2023-11-19T12:34:09;13.30;65.10
80577;DHT22;69937;52.420;10.538;2023-11-19T12:39:12;13.10;65.60
80577;DHT22;69937;52.420;10.538;2023-11-19T12:44:13;12.90;65.80
80577;DHT22;69937;52.420;10.538;2023-11-19T12:49:13;12.90;66.50
80577;DHT22;69937;52.420;10.538;2023-11-19T12:54:14;12.90;66.90
80577;DHT22;69937;52.420;10.538;2023-11-19T12:59:14;12.90;66.80
80577;DHT22;69937;52.420;10.538;2023-11-19T13:04:18;13.30;66.50
80577;DHT22;69937;52.420;10.538;2023-11-19T13:09:23;13.80;64.40
80577;DHT22;69937;52.420;10.538;2023-11-19T13:14:36;13.60;64.60
80577;DHT22;69937;52.420;10.538;2023-11-19T13:19:38;13.40;65.10
80577;DHT22;69937;52.420;10.538;2023-11-19T13:24:39;13.20;65.00
80577;DHT22;69937;52.420;10.538;2023-11-19T13:29:40;13.10;65.80
80577;DHT22;69937;52.420;10.538;2023-11-19T13:34:41;12.90;65.90
80577;DHT22;69937;52.420;10.538;2023-11-19T13:39:42;12.80;65.70
80577;DHT22;69937;52.420;10.538;2023-11-19T13:44:42;12.60;66.40
80577;DHT22;69937;52.420;10.538;2023-11-19T13:49:44;12.50;66.50
80577;DHT22;69937;52.420;10.538;2023-11-19T13:54:45;12.50;66.90
80577;DHT22;69937;52.420;10.538;2023-11-19T13:59:45;12.50;66.80
80577;DHT22;69937;52.420;10.538;2023-11-19T14:04:46;12.50;67.00
80577;DHT22;69937;52.420;10.538;2023-11-19T14:09:47;12.50;67.10
80577;DHT22;69937;52.420;10.538;2023-11-19T14:14:47;12.50;66.50
80577;DHT22;69937;52.420;10.538;2023-11-19T14:19:48;12.50;66.70
80577;DHT22;69937;52.420;10.538;2023-11-19T14:24:48;12.60;66.60
80577;DHT22;69937;52.420;10.538;2023-11-19T14:29:49;12.70;66.80
80577;DHT22;69937;52.420;10.538;2023-11-19T14:34:49;12.50;67.20
80577;DHT22;69937;52.420;10.538;2023-11-19T14:39:50;12.40;67.90
80577;DHT22;69937;52.420;10.538;2023-11-19T14:44:51;12.40;68.40
80577;DHT22;69937;52.420;10.538;2023-11-19T14:49:55;12.20;68.60
80577;DHT22;69937;52.420;10.538;2023-11-19T14:54:56;12.10;69.00
80577;DHT22;69937;52.420;10.538;2023-11-19T14:59:57;12.00;69.70
80577;DHT22;69937;52.420;10.538;2023-11-19T15:04:57;11.90;70.00
80577;DHT22;69937;52.420;10.538;2023-11-19T15:09:58;11.90;70.20
80577;DHT22;69937;52.420;10.538;2023-11-19T15:14:58;11.80;70.90
80577;DHT22;69937;52.420;10.538;2023-11-19T15:19:59;11.70;71.80
80577;DHT22;69937;52.420;10.538;2023-11-19T15:24:59;11.60;72.20
80577;DHT22;69937;52.420;10.538;2023-11-19T15:30:00;11.50;72.00
80577;DHT22;69937;52.420;10.538;2023-11-19T15:35:00;11.50;72.00
80577;DHT22;69937;52.420;10.538;2023-11-19T15:40:01;11.50;72.90
80577;DHT22;69937;52.420;10.538;2023-11-19T15:45:05;11.40;74.00
80577;DHT22;69937;52.420;10.538;2023-11-19T15:50:07;11.10;74.90
80577;DHT22;69937;52.420;10.538;2023-11-19T15:55:10;11.00;75.70
80577;DHT22;69937;52.420;10.538;2023-11-19T16:00:12;10.80;77.40
80577;DHT22;69937;52.420;10.538;2023-11-19T16:05:14;10.70;78.20
80577;DHT22;69937;52.420;10.538;2023-11-19T16:10:14;10.60;78.30
80577;DHT22;69937;52.420;10.538;2023-11-19T16:15:15;10.50;79.40
80577;DHT22;69937;52.420;10.538;2023-11-19T16:20:16;10.30;79.70
80577;DHT22;69937;52.420;10.538;2023-11-19T16:25:16;10.30;80.30
80577;DHT22;69937;52.420;10.538;2023-11-19T16:30:19;10.30;80.30
80577;DHT22;69937;52.420;10.538;2023-11-19T16:35:22;10.30;80.50
80577;DHT22;69937;52.420;10.538;2023-11-19T16:40:22;10.20;80.50
80577;DHT22;69937;52.420;10.538;2023-11-19T16:45:23;10.20;80.60
80577;DHT22;69937;52.420;10.538;2023-11-19T16:50:24;10.20;80.90
80577;DHT22;69937;52.420;10.538;2023-11-19T16:55:24;10.20;80.90
80577;DHT22;69937;52.420;10.538;2023-11-19T17:00:25;10.20;81.00
80577;DHT22;69937;52.420;10.538;2023-11-19T17:05:26;10.10;81.20
80577;DHT22;69937;52.420;10.538;2023-11-19T17:10:26;10.10;81.20
80577;DHT22;69937;52.420;10.538;2023-11-19T17:15:27;10.10;81.20
80577;DHT22;69937;52.420;10.538;2023-11-19T17:20:28;10.10;81.10
80577;DHT22;69937;52.420;10.538;2023-11-19T17:25:29;10.00;81.20
80577;DHT22;69937;52.420;10.538;2023-11-19T17:30:29;10.00;81.30
80577;DHT22;69937;52.420;10.538;2023-11-19T17:35:31;10.00;81.40
80577;DHT22;69937;52.420;10.538;2023-11-19T17:40:31;10.00;81.40
80577;DHT22;69937;52.420;10.538;2023-11-19T17:45:32;10.00;81.30
80577;DHT22;69937;52.420;10.538;2023-11-19T17:50:36;10.00;81.30
80577;DHT22;69937;52.420;10.538;2023-11-19T17:55:36;10.10;81.20
80577;DHT22;69937;52.420;10.538;2023-11-19T18:00:37;10.10;81.10
80577;DHT22;69937;52.420;10.538;2023-11-19T18:05:37;10.10;81.30
80577;DHT22;69937;52.420;10.538;2023-11-19T18:10:41;10.10;81.70
80577;DHT22;69937;52.420;10.538;2023-11-19T18:15:42;10.00;82.00
80577;DHT22;69937;52.420;10.538;2023-11-19T18:20:43;10.00;82.00
80577;DHT22;69937;52.420;10.538;2023-11-19T18:25:43;10.00;82.20
80577;DHT22;69937;52.420;10.538;2023-11-19T18:30:47;10.00;82.30
80577;DHT22;69937;52.420;10.538;2023-11-19T18:35:47;10.00;82.40
80577;DHT22;69937;52.420;10.538;2023-11-19T18:40:48;10.00;82.50
80577;DHT22;69937;52.420;10.538;2023-11-19T18:45:48;10.00;82.20
80577;DHT22;69937;52.420;10.538;2023-11-19T18:50:49;10.00;82.00
80577;DHT22;69937;52.420;10.538;2023-11-19T18:55:49;10.00;81.90
80577;DHT22;69937;52.420;10.538;2023-11-19T19:00:50;10.00;81.70
80577;DHT22;69937;52.420;10.538;2023-11-19T19:05:51;10.00;81.80
80577;DHT22;69937;52.420;10.538;2023-11-19T19:10:51;10.00;82.00
80577;DHT22;69937;52.420;10.538;2023-11-19T19:15:52;10.00;81.90
80577;DHT22;69937;52.420;10.538;2023-11-19T19:20:53;10.00;81.90
80577;DHT22;69937;52.420;10.538;2023-11-19T19:25:53;10.00;81.90
80577;DHT22;69937;52.420;10.538;2023-11-19T19:30:54;10.00;82.10
80577;DHT22;69937;52.420;10.538;2023-11-19T19:35:54;10.00;82.30
80577;DHT22;69937;52.420;10.538;2023-11-19T19:40:55;10.00;82.70
80577;DHT22;69937;52.420;10.538;2023-11-19T19:45:56;10.00;82.80
80577;DHT22;69937;52.420;10.538;2023-11-19T19:50:56;10.00;82.90
80577;DHT22;69937;52.420;10.538;2023-11-19T19:55:57;10.00;82.70
80577;DHT22;69937;52.420;10.538;2023-11-19T20:00:57;10.00;82.60
80577;DHT22;69937;52.420;10.538;2023-11-19T20:06:00;10.00;82.60
80577;DHT22;69937;52.420;10.538;2023-11-19T20:11:00;10.00;82.60
80577;DHT22;69937;52.420;10.538;2023-11-19T20:16:01;10.00;82.80
80577;DHT22;69937;52.420;10.538;2023-11-19T20:21:02;10.00;82.70
80577;DHT22;69937;52.420;10.538;2023-11-19T20:26:08;10.00;82.90
80577;DHT22;69937;52.420;10.538;2023-11-19T20:31:09;10.00;82.80
80577;DHT22;69937;52.420;10.538;2023-11-19T20:36:10;10.00;82.80
80577;DHT22;69937;52.420;10.538;2023-11-19T20:41:10;10.00;82.90
80577;DHT22;69937;52.420;10.538;2023-11-19T20:46:11;10.00;83.00
80577;DHT22;69937;52.420;10.538;2023-11-19T20:51:11;9.90;83.20
80577;DHT22;69937;52.420;10.538;2023-11-19T20:56:13;9.90;83.20
80577;DHT22;69937;52.420;10.538;2023-11-19T21:01:13;9.90;83.20
80577;DHT22;69937;52.420;10.538;2023-11-19T21:06:14;9.80;83.00
80577;DHT22;69937;52.420;10.538;2023-11-19T21:11:17;9.80;83.00
80577;DHT22;69937;52.420;10.538;2023-11-19T21:16:17;9.80;82.60
80577;DHT22;69937;52.420;10.538;2023-11-19T21:21:18;9.90;82.50
80577;DHT22;69937;52.420;10.538;2023-11-19T21:26:18;9.90;82.20
80577;DHT22;69937;52.420;10.538;2023-11-19T21:31:19;9.90;82.00
80577;DHT22;69937;52.420;10.538;2023-11-19T21:36:20;10.00;81.80
80577;DHT22;69937;52.420;10.538;2023-11-19T21:41:21;10.00;81.60
80577;DHT22;69937;52.420;10.538;2023-11-19T21:46:22;10.00;81.70
80577;DHT22;69937;52.420;10.538;2023-11-19T21:51:22;10.00;81.70
80577;DHT22;69937;52.420;10.538;2023-11-19T21:56:24;10.00;81.80
80577;DHT22;69937;52.420;10.538;2023-11-19T22:01:24;10.00;82.10
80577;DHT22;69937;52.420;10.538;2023-11-19T22:06:25;10.00;82.20
80577;DHT22;69937;52.420;10.538;2023-11-19T22:11:25;10.00;82.10
80577;DHT22;69937;52.420;10.538;2023-11-19T22:16:28;10.00;82.40
80577;DHT22;69937;52.420;10.538;2023-11-19T22:21:28;10.00;82.50
80577;DHT22;69937;52.420;10.538;2023-11-19T22:26:29;10.00;82.70
80577;DHT22;69937;52.420;10.538;2023-11-19T22:31:33;9.90;83.00
80577;DHT22;69937;52.420;10.538;2023-11-19T22:36:36;9.80;83.50
80577;DHT22;69937;52.420;10.538;2023-11-19T22:41:37;9.80;83.60
80577;DHT22;69937;52.420;10.538;2023-11-19T22:46:37;9.80;83.70
80577;DHT22;69937;52.420;10.538;2023-11-19T22:51:38;9.80;83.90
80577;DHT22;69937;52.420;10.538;2023-11-19T22:56:38;9.80;83.80
80577;DHT22;69937;52.420;10.538;2023-11-19T23:01:39;9.80;83.90
80577;DHT22;69937;52.420;10.538;2023-11-19T23:06:40;9.80;84.00
80577;DHT22;69937;52.420;10.538;2023-11-19T23:11:41;9.80;83.90
80577;DHT22;69937;52.420;10.538;2023-11-19T23:16:42;9.70;84.00
80577;DHT22;69937;52.420;10.538;2023-11-19T23:21:42;9.70;84.30
80577;DHT22;69937;52.420;10.538;2023-11-19T23:26:44;9.70;84.40
80577;DHT22;69937;52.420;10.538;2023-11-19T23:31:45;9.70;84.60
80577;DHT22;69937;52.420;10.538;2023-11-19T23:36:46;9.60;85.00
80577;DHT22;69937;52.420;10.538;2023-11-19T23:41:46;9.60;85.10
80577;DHT22;69937;52.420;10.538;2023-11-19T23:46:47;9.60;85.20
80577;DHT22;69937;52.420;10.538;2023-11-19T23:51:47;9.60;85.30
80577;DHT22;69937;52.420;10.538;2023-11-19T23:56:48;9.60;85.30
